Time;durP1;ratioP1;P1;durP2;ratioP2;P2;SDS_P1;SDS_P2;PMS_P1;PMS_P2;Temp;Humidity;BMP_temperature;BMP_pressure;BME280_temperature;BME280_humidity;BME280_pressure;Samples;Min_cycle;Max_cycle;Signal;HPM_P1;HPM_P2
2022/03/18 00:01:49;;;;;;;4.72;2.50;;;5.80;99.90;;;;;;470777;252;27460;-70
2022/03/18 00:03:53;;;;;;;5.20;2.95;;;5.90;99.90;;;;;;470722;252;27932;-70
2022/03/18 00:05:55;;;;;;;6.75;2.78;;;5.80;99.90;;;;;;470740;252;27507;-72
2022/03/18 00:07:57;;;;;;;9.40;3.67;;;5.80;99.90;;;;;;470777;252;27491;-73
2022/03/18 00:09:58;;;;;;;10.82;2.80;;;5.80;99.90;;;;;;470774;252;27504;-73
2022/03/18 00:12:06;;;;;;;9.15;3.20;;;5.90;99.90;;;;;;470768;252;27900;-73
2022/03/18 00:14:07;;;;;;;9.73;3.03;;;5.80;99.90;;;;;;470731;252;27440;-72
2022/03/18 00:16:11;;;;;;;10.40;3.30;;;5.80;99.90;;;;;;470736;252;27559;-70
2022/03/18 00:18:12;;;;;;;7.75;2.67;;;5.80;99.90;;;;;;470751;252;27429;-70
2022/03/18 00:20:20;;;;;;;7.93;3.70;;;5.80;99.90;;;;;;470732;252;27922;-71
2022/03/18 00:22:21;;;;;;;6.82;3.00;;;5.80;99.90;;;;;;470711;252;27527;-70
2022/03/18 00:24:28;;;;;;;6.45;3.10;;;5.80;99.90;;;;;;470728;252;27931;-70
2022/03/18 00:26:30;;;;;;;8.25;3.42;;;5.90;99.90;;;;;;470738;253;27543;-71
2022/03/18 00:28:31;;;;;;;13.68;3.17;;;5.80;99.90;;;;;;470723;252;27954;-71
2022/03/18 00:30:32;;;;;;;4.07;3.10;;;5.80;99.90;;;;;;470719;252;28030;-71
2022/03/18 00:32:34;;;;;;;10.75;2.95;;;5.80;99.90;;;;;;470682;252;27545;-71
2022/03/18 00:34:35;;;;;;;10.15;3.25;;;5.80;99.90;;;;;;470702;252;27448;-73
2022/03/18 00:36:36;;;;;;;5.22;3.17;;;5.70;99.90;;;;;;470734;252;27528;-71
2022/03/18 00:38:37;;;;;;;8.13;3.75;;;5.70;99.90;;;;;;470705;252;27981;-71
2022/03/18 00:40:38;;;;;;;6.85;3.22;;;5.70;99.90;;;;;;470704;252;28006;-71
2022/03/18 00:42:40;;;;;;;4.53;3.12;;;5.70;99.90;;;;;;470723;252;27726;-71
2022/03/18 00:44:41;;;;;;;4.65;2.97;;;5.70;99.90;;;;;;470742;252;27452;-71
2022/03/18 00:46:42;;;;;;;7.37;3.15;;;5.70;99.90;;;;;;470705;252;27542;-71
2022/03/18 00:53:24;;;;;;;4.28;2.80;;;5.70;99.90;;;;;;470697;252;27483;-71
2022/03/18 00:55:24;;;;;;;8.95;2.85;;;5.70;99.90;;;;;;470676;252;27437;-75
2022/03/18 00:57:25;;;;;;;9.00;3.10;;;5.70;99.90;;;;;;470723;252;27491;-70
2022/03/18 00:59:26;;;;;;;9.45;3.37;;;5.60;99.90;;;;;;470713;252;27924;-71
2022/03/18 01:01:29;;;;;;;7.43;3.15;;;5.60;99.90;;;;;;470710;252;27994;-70
2022/03/18 01:03:29;;;;;;;5.18;3.12;;;5.60;99.90;;;;;;470671;252;27969;-70
2022/03/18 01:05:30;;;;;;;6.60;3.33;;;5.60;99.90;;;;;;470723;252;27551;-73
2022/03/18 01:07:32;;;;;;;7.68;3.55;;;5.60;99.90;;;;;;470729;252;27539;-71
2022/03/18 01:09:33;;;;;;;4.80;3.50;;;5.70;99.90;;;;;;470739;252;27472;-70
2022/03/18 01:11:34;;;;;;;8.65;3.45;;;5.60;99.90;;;;;;470740;252;27465;-71
2022/03/18 01:13:41;;;;;;;8.38;3.20;;;5.60;99.90;;;;;;470731;252;27520;-71
2022/03/18 01:15:42;;;;;;;5.25;3.08;;;5.60;99.90;;;;;;470719;252;27460;-71
2022/03/18 01:17:44;;;;;;;7.60;3.78;;;5.60;99.90;;;;;;470733;252;27925;-70
2022/03/18 01:19:54;;;;;;;11.25;3.70;;;5.50;99.90;;;;;;470739;252;28020;-72
2022/03/18 01:21:55;;;;;;;6.78;3.30;;;5.50;99.90;;;;;;470726;252;27460;-72
2022/03/18 01:23:57;;;;;;;10.02;3.75;;;5.50;99.90;;;;;;470728;252;27972;-71
2022/03/18 01:25:58;;;;;;;7.78;3.78;;;5.50;99.90;;;;;;470666;252;28017;-72
2022/03/18 01:28:01;;;;;;;7.80;3.90;;;5.50;99.90;;;;;;470726;247;27472;-71
2022/03/18 01:30:00;;;;;;;10.05;3.70;;;5.50;99.90;;;;;;470640;252;27423;-71
2022/03/18 01:32:01;;;;;;;11.30;4.30;;;5.50;99.90;;;;;;470759;252;27456;-71
2022/03/18 01:34:03;;;;;;;14.63;3.70;;;5.50;99.90;;;;;;470698;252;27927;-71
2022/03/18 01:36:07;;;;;;;10.07;3.80;;;5.50;99.90;;;;;;470716;252;27927;-71
2022/03/18 01:38:08;;;;;;;9.65;3.60;;;5.50;99.90;;;;;;470740;252;27512;-71
2022/03/18 01:40:10;;;;;;;8.70;4.00;;;5.50;99.90;;;;;;470734;252;27879;-71
2022/03/18 01:42:17;;;;;;;8.68;4.40;;;5.50;99.90;;;;;;470737;252;27929;-73
2022/03/18 01:44:19;;;;;;;8.82;4.22;;;5.60;99.90;;;;;;470816;252;27540;-71
2022/03/18 01:46:19;;;;;;;9.88;4.15;;;5.50;99.90;;;;;;470710;252;27540;-71
2022/03/18 01:48:21;;;;;;;6.50;3.62;;;5.50;99.90;;;;;;470756;252;27934;-71
2022/03/18 01:50:23;;;;;;;13.55;4.68;;;5.50;99.90;;;;;;470741;252;27576;-71
2022/03/18 01:52:24;;;;;;;15.82;3.92;;;5.50;99.90;;;;;;470744;252;27893;-71
2022/03/18 01:56:45;;;;;;;9.93;4.30;;;5.40;99.90;;;;;;470742;252;27919;-71
2022/03/18 01:58:54;;;;;;;16.98;5.57;;;5.40;99.90;;;;;;470725;252;27966;-72
2022/03/18 02:00:55;;;;;;;8.35;4.15;;;5.40;99.90;;;;;;470762;252;27528;-71
2022/03/18 02:02:57;;;;;;;9.63;4.20;;;5.40;99.90;;;;;;470817;252;27923;-74
2022/03/18 02:05:10;;;;;;;10.55;4.57;;;5.40;99.90;;;;;;470701;252;28039;-71
2022/03/18 02:07:11;;;;;;;12.77;5.20;;;5.40;99.90;;;;;;470699;252;27460;-71
2022/03/18 02:09:12;;;;;;;15.85;5.62;;;5.40;99.90;;;;;;470743;252;28604;-70
2022/03/18 02:11:13;;;;;;;11.80;4.87;;;5.40;99.90;;;;;;470712;252;27894;-71
2022/03/18 02:13:15;;;;;;;10.88;5.32;;;5.30;99.90;;;;;;470751;252;27536;-71
2022/03/18 02:17:21;;;;;;;9.15;3.80;;;5.40;99.90;;;;;;471765;252;27487;-72
2022/03/18 02:19:22;;;;;;;10.30;4.35;;;5.40;99.90;;;;;;469832;253;29085;-71
2022/03/18 02:21:24;;;;;;;15.55;4.78;;;5.30;99.90;;;;;;472578;252;27971;-71
2022/03/18 02:23:25;;;;;;;16.75;4.15;;;5.30;99.90;;;;;;471657;252;27454;-71
2022/03/18 02:25:26;;;;;;;9.85;4.00;;;5.30;99.90;;;;;;469829;253;27626;-71
2022/03/18 02:27:28;;;;;;;12.80;4.50;;;5.30;99.90;;;;;;472570;252;27549;-71
2022/03/18 02:29:29;;;;;;;11.02;3.53;;;5.40;99.90;;;;;;471647;252;27442;-71
2022/03/18 02:31:30;;;;;;;10.35;3.92;;;5.30;99.90;;;;;;469834;253;27975;-71
2022/03/18 02:33:31;;;;;;;13.13;4.85;;;5.30;99.90;;;;;;472597;252;28126;-71
2022/03/18 02:35:33;;;;;;;9.90;4.10;;;5.30;99.90;;;;;;471628;252;27398;-72
2022/03/18 02:37:34;;;;;;;12.45;4.20;;;5.30;99.90;;;;;;469824;253;27531;-71
2022/03/18 02:39:35;;;;;;;7.00;3.83;;;5.30;99.90;;;;;;472593;252;27527;-71
2022/03/18 02:41:36;;;;;;;8.35;4.35;;;5.30;99.90;;;;;;471656;252;27498;-71
2022/03/18 02:43:38;;;;;;;12.27;4.70;;;5.30;99.90;;;;;;469852;253;27634;-72
2022/03/18 02:45:39;;;;;;;7.12;3.80;;;5.30;99.90;;;;;;472617;252;27958;-71
2022/03/18 02:47:40;;;;;;;8.75;4.15;;;5.30;99.90;;;;;;471666;252;28007;-72
2022/03/18 02:49:41;;;;;;;9.95;4.20;;;5.30;99.90;;;;;;469830;253;27544;-71
2022/03/18 02:51:43;;;;;;;7.00;3.40;;;5.30;99.90;;;;;;472625;252;27619;-72
2022/03/18 02:53:44;;;;;;;11.20;4.57;;;5.30;99.90;;;;;;471686;252;27944;-72
2022/03/18 02:55:48;;;;;;;13.30;4.15;;;5.30;99.90;;;;;;469851;253;28006;-72
2022/03/18 02:57:48;;;;;;;10.35;4.22;;;5.30;99.90;;;;;;472577;252;27579;-72
2022/03/18 02:59:50;;;;;;;7.15;4.05;;;5.30;99.90;;;;;;471683;252;28025;-74
2022/03/18 03:01:52;;;;;;;11.20;3.90;;;5.30;99.90;;;;;;469838;253;28045;-71
2022/03/18 03:03:53;;;;;;;8.30;4.25;;;5.30;99.90;;;;;;472635;252;27592;-71
2022/03/18 03:08:14;;;;;;;9.70;4.10;;;5.30;99.90;;;;;;469839;253;27550;-71
2022/03/18 03:10:16;;;;;;;7.18;3.83;;;5.30;99.90;;;;;;472603;252;27518;-71
2022/03/18 03:12:17;;;;;;;8.35;4.57;;;5.30;99.90;;;;;;471629;252;27458;-70
2022/03/18 03:14:18;;;;;;;12.27;4.28;;;5.30;99.90;;;;;;469836;253;28071;-73
2022/03/18 03:16:19;;;;;;;12.80;4.07;;;5.20;99.90;;;;;;472566;252;27974;-71
2022/03/18 03:18:21;;;;;;;8.40;3.62;;;5.30;99.90;;;;;;471669;252;27458;-71
2022/03/18 03:20:22;;;;;;;11.23;4.07;;;5.30;99.90;;;;;;469815;253;27518;-71
2022/03/18 03:22:23;;;;;;;9.73;3.83;;;5.30;99.90;;;;;;472581;252;27552;-71
2022/03/18 03:24:24;;;;;;;9.57;4.25;;;5.30;99.90;;;;;;471677;252;27479;-74
2022/03/18 03:26:27;;;;;;;9.38;4.55;;;5.20;99.90;;;;;;469822;253;27515;-71
2022/03/18 03:28:28;;;;;;;9.27;4.20;;;5.30;99.90;;;;;;472581;252;27671;-72
2022/03/18 03:30:29;;;;;;;12.95;4.12;;;5.30;99.90;;;;;;471645;252;27464;-72
2022/03/18 03:32:30;;;;;;;9.77;3.90;;;5.20;99.90;;;;;;469822;253;27580;-71
2022/03/18 03:34:34;;;;;;;13.15;4.40;;;5.20;99.90;;;;;;472580;252;28019;-71
2022/03/18 03:36:35;;;;;;;13.73;4.20;;;5.20;99.90;;;;;;471654;248;27455;-73
2022/03/18 03:38:36;;;;;;;15.93;5.05;;;5.20;99.90;;;;;;469812;253;27995;-71
2022/03/18 03:40:40;;;;;;;14.68;4.90;;;5.20;99.90;;;;;;472580;252;28012;-71
2022/03/18 03:42:40;;;;;;;8.40;4.57;;;5.20;99.90;;;;;;471577;252;27427;-71
2022/03/18 03:44:41;;;;;;;7.65;4.30;;;5.10;99.90;;;;;;469816;253;28002;-71
2022/03/18 03:46:42;;;;;;;10.02;4.55;;;5.10;99.90;;;;;;472581;252;27955;-71
2022/03/18 03:48:44;;;;;;;15.82;4.65;;;5.10;99.90;;;;;;471598;252;27514;-71
2022/03/18 03:50:45;;;;;;;9.25;4.35;;;5.10;99.90;;;;;;469795;253;27654;-71
2022/03/18 03:52:53;;;;;;;11.02;5.15;;;5.10;99.90;;;;;;472579;252;27605;-71
2022/03/18 03:54:54;;;;;;;8.55;4.85;;;5.10;99.90;;;;;;471627;252;27576;-71
2022/03/18 03:57:04;;;;;;;11.48;4.20;;;5.10;99.90;;;;;;469818;253;28024;-71
2022/03/18 03:59:05;;;;;;;10.27;4.80;;;5.10;99.90;;;;;;472596;252;27565;-71
2022/03/18 04:01:07;;;;;;;10.43;4.60;;;5.00;99.90;;;;;;471639;252;27881;-71
2022/03/18 04:03:08;;;;;;;10.55;4.60;;;5.00;99.90;;;;;;469788;253;28133;-71
2022/03/18 04:07:13;;;;;;;7.15;4.35;;;5.00;99.90;;;;;;471631;252;27436;-75
2022/03/18 04:09:24;;;;;;;8.57;4.12;;;5.00;99.90;;;;;;469809;253;27528;-72
2022/03/18 04:11:25;;;;;;;10.93;4.40;;;5.00;99.90;;;;;;472547;252;27592;-71
2022/03/18 04:13:26;;;;;;;8.13;4.90;;;5.00;99.90;;;;;;471632;252;27454;-72
2022/03/18 04:15:28;;;;;;;11.02;4.75;;;5.00;99.90;;;;;;469801;253;27985;-71
2022/03/18 04:17:29;;;;;;;8.52;4.90;;;4.90;99.90;;;;;;472539;252;27536;-71
2022/03/18 04:19:30;;;;;;;10.93;4.93;;;5.00;99.90;;;;;;471662;252;27576;-73
2022/03/18 04:21:31;;;;;;;12.35;4.75;;;5.00;99.90;;;;;;469796;253;27546;-71
2022/03/18 04:23:33;;;;;;;10.23;4.30;;;4.90;99.90;;;;;;472576;252;28030;-72
2022/03/18 04:25:34;;;;;;;12.07;4.15;;;4.90;99.90;;;;;;471634;252;27983;-71
2022/03/18 04:27:35;;;;;;;13.55;5.00;;;4.90;99.90;;;;;;469781;253;27622;-71
2022/03/18 04:29:36;;;;;;;12.85;4.87;;;4.90;99.90;;;;;;472581;252;27666;-71
2022/03/18 04:31:38;;;;;;;9.13;5.72;;;4.90;99.90;;;;;;471674;252;27423;-71
2022/03/18 04:33:39;;;;;;;15.15;5.53;;;4.90;99.90;;;;;;469778;253;27663;-71
2022/03/18 04:35:40;;;;;;;20.20;6.18;;;4.90;99.90;;;;;;472545;252;27985;-71
2022/03/18 04:37:41;;;;;;;11.02;4.80;;;4.80;99.90;;;;;;471660;252;28019;-71
2022/03/18 04:39:43;;;;;;;12.40;5.22;;;4.90;99.90;;;;;;469837;253;27543;-71
2022/03/18 04:41:44;;;;;;;11.32;4.45;;;4.80;99.90;;;;;;472624;252;27658;-72
2022/03/18 04:43:45;;;;;;;15.75;5.65;;;4.80;99.90;;;;;;471673;252;27938;-71
2022/03/18 04:45:46;;;;;;;14.77;4.97;;;4.80;99.90;;;;;;469853;253;28161;-72
2022/03/18 04:47:48;;;;;;;11.12;5.47;;;4.80;99.90;;;;;;472597;252;27516;-72
2022/03/18 04:49:49;;;;;;;12.93;5.40;;;4.80;99.90;;;;;;471683;252;27473;-71
2022/03/18 04:51:50;;;;;;;11.98;5.03;;;4.70;99.90;;;;;;469860;253;27535;-71
2022/03/18 04:53:52;;;;;;;12.20;5.80;;;4.70;99.90;;;;;;472613;252;27569;-72
2022/03/18 04:55:53;;;;;;;13.48;5.25;;;4.70;99.90;;;;;;471632;252;27454;-71
2022/03/18 04:57:54;;;;;;;13.68;6.45;;;4.70;99.90;;;;;;469804;253;27979;-72
2022/03/18 05:00:02;;;;;;;11.95;5.70;;;4.70;99.90;;;;;;472594;252;28028;-71
2022/03/18 05:02:03;;;;;;;10.20;6.07;;;4.70;99.90;;;;;;471612;251;27537;-71
2022/03/18 05:04:05;;;;;;;17.62;6.10;;;4.70;99.90;;;;;;469820;253;28190;-71
2022/03/18 05:06:06;;;;;;;16.42;6.10;;;4.70;99.90;;;;;;472571;252;27663;-71
2022/03/18 05:10:15;;;;;;;13.25;5.70;;;4.70;99.90;;;;;;469833;253;27512;-71
2022/03/18 05:12:22;;;;;;;16.70;5.47;;;4.70;99.90;;;;;;472649;252;27970;-71
2022/03/18 05:14:23;;;;;;;12.70;5.35;;;4.70;99.90;;;;;;471650;252;27506;-71
2022/03/18 05:16:25;;;;;;;19.10;6.05;;;4.60;99.90;;;;;;469776;253;28030;-71
2022/03/18 05:18:33;;;;;;;13.25;6.12;;;4.60;99.90;;;;;;472593;252;28034;-71
2022/03/18 05:20:34;;;;;;;16.73;6.22;;;4.60;99.90;;;;;;471678;252;27473;-71
2022/03/18 05:22:35;;;;;;;13.95;5.53;;;4.60;99.90;;;;;;469793;253;27955;-71
2022/03/18 05:24:37;;;;;;;15.13;6.20;;;4.60;99.90;;;;;;472546;252;28048;-71
2022/03/18 05:26:38;;;;;;;10.75;5.10;;;4.60;99.90;;;;;;471620;252;27437;-72
2022/03/18 05:28:39;;;;;;;15.07;6.03;;;4.60;99.90;;;;;;469847;253;27520;-71
2022/03/18 05:30:40;;;;;;;15.75;5.28;;;4.60;99.90;;;;;;472607;252;27550;-72
2022/03/18 05:32:51;;;;;;;11.32;5.87;;;4.60;99.90;;;;;;471642;252;28041;-71
2022/03/18 05:34:52;;;;;;;12.30;5.35;;;4.70;99.90;;;;;;469822;252;27551;-76
2022/03/18 05:36:53;;;;;;;11.93;4.85;;;4.70;99.90;;;;;;472596;252;27984;-71
2022/03/18 05:39:01;;;;;;;12.35;5.57;;;4.70;99.90;;;;;;471642;252;27945;-71
2022/03/18 05:41:02;;;;;;;12.25;5.30;;;4.70;99.90;;;;;;469793;253;27563;-71
2022/03/18 05:43:04;;;;;;;9.90;5.78;;;4.70;99.90;;;;;;472569;252;28071;-71
2022/03/18 05:45:05;;;;;;;15.32;5.70;;;4.70;99.90;;;;;;471661;252;27578;-71
2022/03/18 05:47:07;;;;;;;20.95;6.47;;;4.70;99.90;;;;;;469811;253;28381;-71
2022/03/18 05:51:12;;;;;;;18.70;6.10;;;4.70;99.90;;;;;;471669;252;27457;-71
2022/03/18 05:53:21;;;;;;;12.70;6.05;;;4.70;99.90;;;;;;469816;253;27998;-72
2022/03/18 05:55:24;;;;;;;11.00;5.40;;;4.70;99.90;;;;;;472561;252;27557;-71
2022/03/18 05:57:24;;;;;;;11.35;4.95;;;4.70;99.90;;;;;;471619;252;27443;-71
2022/03/18 05:59:25;;;;;;;13.62;6.25;;;4.70;99.90;;;;;;469822;253;27568;-71
2022/03/18 06:01:32;;;;;;;13.90;5.78;;;4.70;99.90;;;;;;472550;252;27975;-71
2022/03/18 06:03:33;;;;;;;10.70;5.37;;;4.70;99.90;;;;;;471639;252;27478;-71
2022/03/18 06:05:35;;;;;;;13.95;5.72;;;4.70;99.90;;;;;;469823;251;28090;-71
2022/03/18 06:07:44;;;;;;;12.45;6.28;;;4.70;99.90;;;;;;472596;252;27969;-71
2022/03/18 06:12:05;;;;;;;12.37;5.90;;;4.70;99.90;;;;;;469799;253;28137;-71
2022/03/18 06:14:12;;;;;;;11.88;5.82;;;4.70;99.90;;;;;;472585;252;28057;-71
2022/03/18 06:16:14;;;;;;;11.05;5.10;;;4.70;99.90;;;;;;471628;252;27452;-73
2022/03/18 06:18:26;;;;;;;12.68;5.60;;;4.70;99.90;;;;;;469809;253;27950;-71
2022/03/18 06:20:27;;;;;;;9.25;5.37;;;4.70;99.90;;;;;;472562;252;27645;-71
2022/03/18 06:22:29;;;;;;;12.00;5.60;;;4.70;99.90;;;;;;471631;252;27886;-71
2022/03/18 06:24:30;;;;;;;13.70;6.37;;;4.70;99.90;;;;;;469784;253;28159;-71
2022/03/18 06:26:33;;;;;;;15.32;5.90;;;4.70;99.90;;;;;;472568;252;27605;-71
2022/03/18 06:28:33;;;;;;;11.85;5.72;;;4.70;99.90;;;;;;471575;251;27454;-71
2022/03/18 06:30:35;;;;;;;10.15;5.60;;;4.70;99.90;;;;;;469820;253;28110;-71
2022/03/18 06:32:36;;;;;;;11.48;5.57;;;4.80;99.90;;;;;;472609;252;28102;-71
2022/03/18 06:34:38;;;;;;;16.90;6.22;;;4.80;99.90;;;;;;471621;252;27493;-71
2022/03/18 06:36:39;;;;;;;13.25;6.40;;;4.80;99.90;;;;;;469752;252;27649;-71
2022/03/18 06:38:40;;;;;;;25.75;6.68;;;4.80;99.90;;;;;;472604;252;27574;-71
2022/03/18 06:40:41;;;;;;;12.15;6.32;;;4.80;99.90;;;;;;471674;252;27538;-71
2022/03/18 06:42:42;;;;;;;14.77;6.20;;;4.80;99.90;;;;;;469822;253;28106;-71
2022/03/18 06:44:43;;;;;;;11.55;5.60;;;4.80;99.90;;;;;;472593;252;27977;-71
2022/03/18 06:46:45;;;;;;;14.23;5.80;;;4.90;99.90;;;;;;471643;252;27470;-71
2022/03/18 06:48:46;;;;;;;8.38;5.43;;;4.90;99.90;;;;;;469804;253;27527;-72
2022/03/18 06:50:47;;;;;;;9.30;5.95;;;4.80;99.90;;;;;;472572;252;27604;-72
2022/03/18 06:52:48;;;;;;;10.27;5.95;;;4.90;99.90;;;;;;471651;252;27465;-71
2022/03/18 06:54:50;;;;;;;11.40;6.15;;;4.90;99.90;;;;;;469821;253;27988;-72
2022/03/18 06:56:52;;;;;;;9.50;5.40;;;4.90;99.90;;;;;;472553;252;28043;-71
2022/03/18 06:58:53;;;;;;;17.95;6.43;;;5.00;99.90;;;;;;471655;252;27494;-72
2022/03/18 07:00:55;;;;;;;11.80;6.00;;;4.90;99.90;;;;;;469829;253;27642;-71
2022/03/18 07:02:56;;;;;;;12.80;5.85;;;4.90;99.90;;;;;;472614;252;27504;-71
2022/03/18 07:04:57;;;;;;;11.20;5.80;;;5.00;99.90;;;;;;471657;252;28067;-72
2022/03/18 07:06:58;;;;;;;15.43;5.95;;;5.00;99.90;;;;;;469826;253;27991;-71
2022/03/18 07:09:00;;;;;;;11.32;6.10;;;5.00;99.90;;;;;;472605;252;27974;-71
2022/03/18 07:11:02;;;;;;;10.32;5.80;;;5.00;99.90;;;;;;471656;252;27588;-71
2022/03/18 07:13:03;;;;;;;16.05;6.15;;;5.00;99.90;;;;;;469798;253;27555;-71
2022/03/18 07:15:05;;;;;;;15.05;6.18;;;5.00;99.90;;;;;;472570;252;27987;-73
2022/03/18 07:19:26;;;;;;;14.65;5.95;;;5.10;99.90;;;;;;469780;253;28113;-71
2022/03/18 07:21:26;;;;;;;12.55;6.50;;;5.10;99.90;;;;;;472505;252;27605;-71
2022/03/18 07:23:28;;;;;;;11.88;6.00;;;5.10;99.90;;;;;;471664;252;27566;-71
2022/03/18 07:25:38;;;;;;;16.55;6.50;;;5.10;99.90;;;;;;469820;253;27543;-74
2022/03/18 07:27:40;;;;;;;14.07;6.20;;;5.20;99.90;;;;;;472578;252;27545;-72
2022/03/18 07:29:41;;;;;;;16.65;6.30;;;5.20;99.90;;;;;;471656;252;27530;-72
2022/03/18 07:33:46;;;;;;;10.32;5.40;;;5.30;99.90;;;;;;472587;252;27582;-72
2022/03/18 07:35:49;;;;;;;10.02;5.60;;;5.30;99.90;;;;;;471647;252;27539;-71
2022/03/18 07:37:50;;;;;;;17.48;6.40;;;5.20;99.90;;;;;;469828;253;27546;-72
2022/03/18 07:40:03;;;;;;;20.23;6.22;;;5.30;99.90;;;;;;472593;252;28024;-71
2022/03/18 07:42:05;;;;;;;23.50;6.37;;;5.40;99.90;;;;;;471647;252;27962;-71
2022/03/18 07:44:06;;;;;;;14.23;5.95;;;5.30;99.90;;;;;;469813;253;27551;-71
2022/03/18 07:46:08;;;;;;;11.68;5.45;;;5.30;99.90;;;;;;472607;252;27540;-71
2022/03/18 07:48:09;;;;;;;16.30;6.07;;;5.40;99.90;;;;;;471677;252;27457;-71
2022/03/18 07:50:20;;;;;;;16.65;5.93;;;5.40;99.90;;;;;;469849;253;27935;-72
2022/03/18 07:52:18;;;;;;;10.63;5.62;;;5.40;99.90;;;;;;472419;252;27559;-71
2022/03/18 07:54:19;;;;;;;10.85;5.32;;;5.40;99.90;;;;;;471682;252;27989;-71
2022/03/18 07:56:21;;;;;;;11.43;5.40;;;5.50;99.90;;;;;;469850;253;27552;-72
2022/03/18 08:00:35;;;;;;;9.02;5.78;;;5.50;99.90;;;;;;471684;252;27430;-71
2022/03/18 08:02:37;;;;;;;19.73;6.50;;;5.50;99.90;;;;;;469811;253;27697;-72
2022/03/18 08:04:38;;;;;;;13.02;5.68;;;5.70;99.90;;;;;;472632;252;27662;-72
2022/03/18 08:06:52;;;;;;;8.45;5.43;;;5.70;99.90;;;;;;471697;252;27871;-71
2022/03/18 08:08:53;;;;;;;14.73;5.60;;;5.70;99.90;;;;;;469879;252;27533;-72
2022/03/18 08:10:54;;;;;;;15.13;6.20;;;5.70;99.90;;;;;;472578;252;28425;-73
2022/03/18 08:12:55;;;;;;;10.88;6.20;;;5.80;99.90;;;;;;471661;252;29370;-72
2022/03/18 08:14:56;;;;;;;10.70;5.55;;;5.80;99.90;;;;;;469873;253;27570;-72
2022/03/18 08:17:01;;;;;;;12.77;5.75;;;5.90;99.90;;;;;;472643;252;27630;-71
2022/03/18 08:19:02;;;;;;;13.90;5.90;;;5.90;99.90;;;;;;471697;252;27533;-71
2022/03/18 08:21:06;;;;;;;11.85;6.37;;;5.90;99.90;;;;;;469850;253;27651;-71
2022/03/18 08:23:14;;;;;;;10.63;6.30;;;5.90;99.90;;;;;;472647;252;27628;-72
2022/03/18 08:25:15;;;;;;;12.13;6.50;;;5.70;99.90;;;;;;471612;252;27455;-71
2022/03/18 08:27:16;;;;;;;11.70;6.83;;;5.70;99.90;;;;;;469842;253;28894;-72
2022/03/18 08:29:17;;;;;;;11.27;5.77;;;5.90;99.90;;;;;;472619;252;28740;-72
2022/03/18 08:31:18;;;;;;;15.57;6.57;;;6.00;99.90;;;;;;471683;252;28901;-72
2022/03/18 08:33:24;;;;;;;14.30;6.90;;;6.00;99.90;;;;;;469837;253;27523;-72
2022/03/18 08:35:24;;;;;;;16.00;7.68;;;6.00;99.90;;;;;;472551;252;27541;-72
2022/03/18 08:39:45;;;;;;;17.75;7.40;;;6.20;99.90;;;;;;469851;253;27562;-72
2022/03/18 08:41:52;;;;;;;15.80;6.75;;;6.00;99.90;;;;;;472626;252;27510;-72
2022/03/18 08:43:54;;;;;;;15.68;8.07;;;6.00;99.90;;;;;;471678;252;27529;-72
2022/03/18 08:45:55;;;;;;;10.80;6.70;;;6.00;99.90;;;;;;469850;253;28733;-72
2022/03/18 08:47:56;;;;;;;13.40;6.85;;;6.10;99.90;;;;;;472596;252;29363;-73
2022/03/18 08:49:57;;;;;;;12.55;7.22;;;6.10;99.90;;;;;;471663;252;27479;-72
2022/03/18 08:51:59;;;;;;;11.23;6.12;;;6.00;99.90;;;;;;469843;253;27598;-74
2022/03/18 08:54:02;;;;;;;12.83;6.60;;;6.10;99.90;;;;;;472563;252;28133;-73
2022/03/18 08:56:01;;;;;;;14.77;6.68;;;5.90;99.90;;;;;;471560;252;28716;-71
2022/03/18 08:58:04;;;;;;;9.10;6.17;;;5.90;99.90;;;;;;469697;253;27562;-72
2022/03/18 09:00:05;;;;;;;14.00;6.83;;;6.00;99.90;;;;;;472513;252;28407;-73
2022/03/18 09:02:05;;;;;;;12.60;6.60;;;6.10;99.90;;;;;;471595;252;27851;-71
2022/03/18 09:04:06;;;;;;;14.90;6.93;;;6.10;99.90;;;;;;469858;253;28025;-71
2022/03/18 09:06:07;;;;;;;14.43;6.95;;;6.10;99.90;;;;;;472648;252;28157;-74
2022/03/18 09:08:09;;;;;;;12.48;5.90;;;6.00;99.90;;;;;;471666;252;27902;-73
2022/03/18 09:12:20;;;;;;;10.80;6.23;;;6.20;99.90;;;;;;472601;252;28909;-73
2022/03/18 09:14:21;;;;;;;15.43;6.40;;;6.20;99.90;;;;;;471658;252;28865;-71
2022/03/18 09:16:23;;;;;;;12.80;7.10;;;6.10;99.90;;;;;;469822;253;28920;-73
2022/03/18 09:18:24;;;;;;;15.33;7.33;;;6.10;99.90;;;;;;472570;252;29385;-75
2022/03/18 09:20:25;;;;;;;16.10;7.00;;;6.20;99.90;;;;;;471673;247;28390;-71
2022/03/18 09:22:30;;;;;;;14.30;8.00;;;6.10;99.90;;;;;;469853;253;28652;-71
2022/03/18 09:24:31;;;;;;;11.33;6.57;;;6.30;99.90;;;;;;472620;252;28149;-70
2022/03/18 09:26:32;;;;;;;15.65;7.40;;;6.40;99.90;;;;;;471697;252;29390;-71
2022/03/18 09:28:33;;;;;;;11.77;6.30;;;6.40;99.90;;;;;;469828;253;28092;-74
2022/03/18 09:30:39;;;;;;;15.80;8.00;;;6.40;99.90;;;;;;472608;252;28702;-74
2022/03/18 09:32:42;;;;;;;14.33;7.53;;;6.40;99.90;;;;;;471677;252;27910;-73
2022/03/18 09:34:41;;;;;;;16.13;6.93;;;6.50;99.90;;;;;;469656;253;28119;-71
2022/03/18 09:36:42;;;;;;;12.20;6.93;;;6.60;99.90;;;;;;472609;252;29382;-74
2022/03/18 09:38:44;;;;;;;13.53;7.60;;;6.60;99.90;;;;;;471685;252;29316;-71
2022/03/18 09:42:52;;;;;;;18.63;7.00;;;6.60;99.90;;;;;;472631;252;27617;-74
2022/03/18 09:44:57;;;;;;;13.53;6.87;;;6.60;99.90;;;;;;471669;252;28005;-71
2022/03/18 09:46:58;;;;;;;15.23;6.80;;;6.70;99.90;;;;;;469857;253;28179;-71
2022/03/18 09:48:59;;;;;;;15.13;7.60;;;6.90;99.90;;;;;;472607;250;28021;-71
2022/03/18 09:51:00;;;;;;;11.43;6.70;;;6.80;99.90;;;;;;471660;252;27779;-73
2022/03/18 09:53:04;;;;;;;11.17;6.80;;;6.80;99.90;;;;;;469795;253;28575;-74
2022/03/18 09:55:05;;;;;;;11.67;6.73;;;7.10;99.90;;;;;;472616;252;28036;-76
2022/03/18 09:57:09;;;;;;;14.10;6.97;;;7.10;99.90;;;;;;471671;252;28061;-74
2022/03/18 09:59:10;;;;;;;13.83;7.67;;;7.20;99.90;;;;;;469836;253;28032;-73
2022/03/18 10:01:12;;;;;;;14.60;7.80;;;7.20;99.90;;;;;;472561;252;28121;-73
2022/03/18 10:03:12;;;;;;;12.83;7.60;;;7.20;99.90;;;;;;471646;252;28373;-74
2022/03/18 10:05:16;;;;;;;13.03;7.33;;;7.30;99.90;;;;;;469842;253;28530;-77
2022/03/18 10:07:23;;;;;;;20.47;7.90;;;7.20;99.90;;;;;;472613;252;27825;-74
2022/03/18 10:09:25;;;;;;;11.57;7.60;;;7.30;99.90;;;;;;471666;252;27897;-73
2022/03/18 10:11:30;;;;;;;10.00;6.67;;;7.30;99.90;;;;;;469839;253;27562;-74
2022/03/18 10:13:30;;;;;;;11.60;7.40;;;7.50;99.90;;;;;;472543;252;28043;-71
2022/03/18 10:15:31;;;;;;;12.40;7.43;;;7.50;99.90;;;;;;471703;252;28149;-74
2022/03/18 10:17:36;;;;;;;12.63;7.03;;;7.80;99.90;;;;;;469834;253;28478;-74
2022/03/18 10:19:41;;;;;;;17.23;6.77;;;7.90;99.90;;;;;;472662;252;28272;-71
2022/03/18 10:21:38;;;;;;;18.63;7.83;;;8.10;99.90;;;;;;471424;252;28386;-74
2022/03/18 10:23:40;;;;;;;13.83;7.70;;;7.90;99.90;;;;;;469861;253;28606;-74
2022/03/18 10:25:41;;;;;;;16.47;8.33;;;8.00;99.90;;;;;;472602;252;28082;-74
2022/03/18 10:27:51;;;;;;;15.63;7.37;;;8.00;99.90;;;;;;471682;252;28059;-74
2022/03/18 10:29:55;;;;;;;13.63;7.00;;;8.20;99.90;;;;;;469849;253;27801;-71
2022/03/18 10:31:58;;;;;;;15.23;7.40;;;8.20;99.90;;;;;;472595;252;28515;-71
2022/03/18 10:38:38;;;;;;;16.50;9.03;;;8.40;99.90;;;;;;472597;252;28622;-71
2022/03/18 10:40:55;;;;;;;17.73;8.23;;;8.30;99.90;;;;;;471691;252;28426;-74
2022/03/18 10:42:56;;;;;;;18.10;7.97;;;8.30;99.90;;;;;;469827;252;28102;-73
2022/03/18 10:44:58;;;;;;;13.87;8.17;;;8.10;99.90;;;;;;472586;252;28101;-74
2022/03/18 10:46:59;;;;;;;14.00;8.20;;;8.20;99.90;;;;;;471660;251;28163;-74
2022/03/18 10:49:01;;;;;;;15.63;8.10;;;8.20;99.90;;;;;;469853;253;27671;-74
2022/03/18 10:51:02;;;;;;;15.17;8.67;;;8.10;99.90;;;;;;472610;252;28190;-74
2022/03/18 10:53:10;;;;;;;18.30;9.00;;;8.10;99.90;;;;;;471696;252;27831;-74
2022/03/18 10:55:10;;;;;;;14.50;7.97;;;8.40;99.90;;;;;;469803;253;27760;-71
2022/03/18 10:57:12;;;;;;;18.93;9.70;;;8.50;99.90;;;;;;472614;252;28102;-74
2022/03/18 10:59:17;;;;;;;17.43;9.17;;;8.50;99.90;;;;;;471669;252;28352;-73
2022/03/18 11:01:16;;;;;;;17.90;8.97;;;8.60;99.90;;;;;;469738;253;27974;-71
2022/03/18 11:03:18;;;;;;;17.73;9.00;;;8.40;99.90;;;;;;472666;250;28107;-75
2022/03/18 11:05:19;;;;;;;16.87;9.40;;;8.40;99.90;;;;;;471753;252;28164;-74
2022/03/18 11:07:30;;;;;;;15.03;9.27;;;8.70;99.90;;;;;;469910;253;27559;-74
2022/03/18 11:11:06;;;;;;;17.53;10.30;;;8.80;99.90;;;;;;472598;252;28600;-72
2022/03/18 11:11:33;;;;;;;23.13;9.93;;;8.60;99.90;;;;;;470050;252;27872;-72
2022/03/18 11:13:35;;;;;;;18.80;10.47;;;8.40;99.90;;;;;;469882;253;28566;-74
2022/03/18 11:15:39;;;;;;;15.57;10.40;;;8.40;99.90;;;;;;451264;263;28439;-74
2022/03/18 11:17:39;;;;;;;16.27;10.50;;;8.50;99.90;;;;;;472458;252;27951;-74